sensor_id;sensor_type;location;lat;lon;timestamp;P1;durP1;ratioP1;P2;durP2;ratioP2
64894;SDS011;51588;53.702;10.208;2022-07-09T00:00:18;5.20;;;2.70;;
64894;SDS011;51588;53.702;10.208;2022-07-09T00:02:44;4.90;;;2.80;;
64894;SDS011;51588;53.702;10.208;2022-07-09T00:05:11;5.23;;;2.50;;
64894;SDS011;51588;53.702;10.208;2022-07-09T00:07:38;3.40;;;2.57;;
64894;SDS011;51588;53.702;10.208;2022-07-09T00:10:06;5.10;;;2.77;;
64894;SDS011;51588;53.702;10.208;2022-07-09T00:12:33;5.57;;;3.27;;
64894;SDS011;51588;53.702;10.208;2022-07-09T00:14:59;2.53;;;2.27;;
64894;SDS011;51588;53.702;10.208;2022-07-09T00:17:26;3.97;;;2.70;;
64894;SDS011;51588;53.702;10.208;2022-07-09T00:19:55;4.13;;;2.87;;
64894;SDS011;51588;53.702;10.208;2022-07-09T00:22:21;4.23;;;2.57;;
64894;SDS011;51588;53.702;10.208;2022-07-09T00:24:47;3.97;;;2.80;;
64894;SDS011;51588;53.702;10.208;2022-07-09T00:27:15;4.73;;;3.00;;
64894;SDS011;51588;53.702;10.208;2022-07-09T00:29:41;5.07;;;2.43;;
64894;SDS011;51588;53.702;10.208;2022-07-09T00:32:08;4.87;;;3.10;;
64894;SDS011;51588;53.702;10.208;2022-07-09T00:34:34;3.90;;;2.70;;
64894;SDS011;51588;53.702;10.208;2022-07-09T00:37:00;5.67;;;2.73;;
64894;SDS011;51588;53.702;10.208;2022-07-09T00:39:27;5.43;;;3.10;;
64894;SDS011;51588;53.702;10.208;2022-07-09T00:42:01;3.90;;;2.70;;
64894;SDS011;51588;53.702;10.208;2022-07-09T00:44:28;5.70;;;2.50;;
64894;SDS011;51588;53.702;10.208;2022-07-09T00:46:55;6.20;;;2.77;;
64894;SDS011;51588;53.702;10.208;2022-07-09T00:49:21;6.37;;;2.60;;
64894;SDS011;51588;53.702;10.208;2022-07-09T00:51:47;3.47;;;2.73;;
64894;SDS011;51588;53.702;10.208;2022-07-09T00:54:14;4.23;;;2.70;;
64894;SDS011;51588;53.702;10.208;2022-07-09T00:56:40;4.50;;;2.50;;
64894;SDS011;51588;53.702;10.208;2022-07-09T00:59:07;3.97;;;2.80;;
64894;SDS011;51588;53.702;10.208;2022-07-09T01:01:38;3.63;;;2.67;;
64894;SDS011;51588;53.702;10.208;2022-07-09T01:04:05;4.37;;;2.67;;
64894;SDS011;51588;53.702;10.208;2022-07-09T01:06:32;3.13;;;2.40;;
64894;SDS011;51588;53.702;10.208;2022-07-09T01:08:59;4.63;;;2.80;;
64894;SDS011;51588;53.702;10.208;2022-07-09T01:11:26;3.87;;;2.90;;
64894;SDS011;51588;53.702;10.208;2022-07-09T01:13:52;4.50;;;2.67;;
64894;SDS011;51588;53.702;10.208;2022-07-09T01:16:19;3.07;;;2.37;;
64894;SDS011;51588;53.702;10.208;2022-07-09T01:18:47;5.10;;;2.93;;
64894;SDS011;51588;53.702;10.208;2022-07-09T01:21:15;6.43;;;2.70;;
64894;SDS011;51588;53.702;10.208;2022-07-09T01:23:41;3.37;;;2.50;;
64894;SDS011;51588;53.702;10.208;2022-07-09T01:26:07;2.97;;;2.63;;
64894;SDS011;51588;53.702;10.208;2022-07-09T01:28:34;4.13;;;2.90;;
64894;SDS011;51588;53.702;10.208;2022-07-09T01:31:00;3.80;;;2.50;;
64894;SDS011;51588;53.702;10.208;2022-07-09T01:33:27;4.03;;;2.40;;
64894;SDS011;51588;53.702;10.208;2022-07-09T01:35:53;3.93;;;2.67;;
64894;SDS011;51588;53.702;10.208;2022-07-09T01:38:21;4.70;;;2.90;;
64894;SDS011;51588;53.702;10.208;2022-07-09T01:40:47;4.53;;;2.60;;
64894;SDS011;51588;53.702;10.208;2022-07-09T01:43:13;4.00;;;2.50;;
64894;SDS011;51588;53.702;10.208;2022-07-09T01:45:40;3.23;;;2.77;;
64894;SDS011;51588;53.702;10.208;2022-07-09T01:48:06;2.70;;;2.30;;
64894;SDS011;51588;53.702;10.208;2022-07-09T01:50:32;2.77;;;2.53;;
64894;SDS011;51588;53.702;10.208;2022-07-09T01:52:59;4.73;;;2.60;;
64894;SDS011;51588;53.702;10.208;2022-07-09T01:55:26;3.97;;;2.70;;
64894;SDS011;51588;53.702;10.208;2022-07-09T01:57:53;3.13;;;2.30;;
64894;SDS011;51588;53.702;10.208;2022-07-09T02:00:19;3.47;;;2.60;;
64894;SDS011;51588;53.702;10.208;2022-07-09T02:02:45;3.60;;;2.47;;
64894;SDS011;51588;53.702;10.208;2022-07-09T02:05:12;3.03;;;2.73;;
64894;SDS011;51588;53.702;10.208;2022-07-09T02:07:38;4.97;;;2.60;;
64894;SDS011;51588;53.702;10.208;2022-07-09T02:10:05;3.50;;;2.70;;
64894;SDS011;51588;53.702;10.208;2022-07-09T02:12:33;4.47;;;2.73;;
64894;SDS011;51588;53.702;10.208;2022-07-09T02:14:59;3.93;;;2.90;;
64894;SDS011;51588;53.702;10.208;2022-07-09T02:17:25;3.87;;;2.80;;
64894;SDS011;51588;53.702;10.208;2022-07-09T02:19:52;4.23;;;2.67;;
64894;SDS011;51588;53.702;10.208;2022-07-09T02:22:18;7.40;;;3.40;;
64894;SDS011;51588;53.702;10.208;2022-07-09T02:24:44;4.93;;;2.60;;
64894;SDS011;51588;53.702;10.208;2022-07-09T02:27:11;4.57;;;2.63;;
64894;SDS011;51588;53.702;10.208;2022-07-09T02:29:38;3.60;;;2.47;;
64894;SDS011;51588;53.702;10.208;2022-07-09T02:32:05;4.53;;;2.70;;
64894;SDS011;51588;53.702;10.208;2022-07-09T02:34:32;5.13;;;3.13;;
64894;SDS011;51588;53.702;10.208;2022-07-09T02:36:58;3.40;;;2.20;;
64894;SDS011;51588;53.702;10.208;2022-07-09T02:39:24;5.23;;;2.80;;
64894;SDS011;51588;53.702;10.208;2022-07-09T02:41:51;5.33;;;3.17;;
64894;SDS011;51588;53.702;10.208;2022-07-09T02:44:17;3.90;;;2.70;;
64894;SDS011;51588;53.702;10.208;2022-07-09T02:46:45;5.57;;;3.00;;
64894;SDS011;51588;53.702;10.208;2022-07-09T02:49:11;6.07;;;2.97;;
64894;SDS011;51588;53.702;10.208;2022-07-09T02:51:38;4.90;;;3.00;;
64894;SDS011;51588;53.702;10.208;2022-07-09T02:54:04;4.13;;;2.73;;
64894;SDS011;51588;53.702;10.208;2022-07-09T02:56:30;4.27;;;3.03;;
64894;SDS011;51588;53.702;10.208;2022-07-09T02:58:57;4.00;;;2.60;;
64894;SDS011;51588;53.702;10.208;2022-07-09T03:01:23;2.87;;;2.50;;
64894;SDS011;51588;53.702;10.208;2022-07-09T03:03:51;5.40;;;3.30;;
64894;SDS011;51588;53.702;10.208;2022-07-09T03:06:17;4.00;;;2.70;;
64894;SDS011;51588;53.702;10.208;2022-07-09T03:08:44;4.40;;;2.70;;
64894;SDS011;51588;53.702;10.208;2022-07-09T03:11:10;3.33;;;2.50;;
64894;SDS011;51588;53.702;10.208;2022-07-09T03:13:37;5.77;;;3.23;;
64894;SDS011;51588;53.702;10.208;2022-07-09T03:16:03;3.73;;;2.60;;
64894;SDS011;51588;53.702;10.208;2022-07-09T03:18:29;4.03;;;2.53;;
64894;SDS011;51588;53.702;10.208;2022-07-09T03:20:57;6.93;;;3.10;;
64894;SDS011;51588;53.702;10.208;2022-07-09T03:23:23;4.63;;;2.97;;
64894;SDS011;51588;53.702;10.208;2022-07-09T03:25:50;3.33;;;3.00;;
64894;SDS011;51588;53.702;10.208;2022-07-09T03:28:16;3.60;;;2.70;;
64894;SDS011;51588;53.702;10.208;2022-07-09T03:30:43;3.47;;;2.73;;
64894;SDS011;51588;53.702;10.208;2022-07-09T03:33:09;3.90;;;2.70;;
64894;SDS011;51588;53.702;10.208;2022-07-09T03:35:35;3.03;;;2.60;;
64894;SDS011;51588;53.702;10.208;2022-07-09T03:38:05;3.57;;;2.70;;
64894;SDS011;51588;53.702;10.208;2022-07-09T03:40:32;3.00;;;2.30;;
64894;SDS011;51588;53.702;10.208;2022-07-09T03:42:58;4.20;;;2.80;;
64894;SDS011;51588;53.702;10.208;2022-07-09T03:45:24;4.60;;;2.80;;
64894;SDS011;51588;53.702;10.208;2022-07-09T03:47:51;4.40;;;3.10;;
64894;SDS011;51588;53.702;10.208;2022-07-09T03:50:17;4.90;;;2.87;;
64894;SDS011;51588;53.702;10.208;2022-07-09T03:52:43;5.23;;;2.80;;
64894;SDS011;51588;53.702;10.208;2022-07-09T03:55:11;4.37;;;3.00;;
64894;SDS011;51588;53.702;10.208;2022-07-09T03:57:37;5.53;;;3.00;;
64894;SDS011;51588;53.702;10.208;2022-07-09T04:00:04;4.80;;;3.20;;
64894;SDS011;51588;53.702;10.208;2022-07-09T04:02:31;4.47;;;2.60;;
64894;SDS011;51588;53.702;10.208;2022-07-09T04:04:57;3.50;;;2.70;;
64894;SDS011;51588;53.702;10.208;2022-07-09T04:07:24;4.80;;;2.90;;
64894;SDS011;51588;53.702;10.208;2022-07-09T04:09:51;4.90;;;2.60;;
64894;SDS011;51588;53.702;10.208;2022-07-09T04:12:19;3.50;;;2.53;;
64894;SDS011;51588;53.702;10.208;2022-07-09T04:14:45;4.67;;;2.87;;
64894;SDS011;51588;53.702;10.208;2022-07-09T04:17:12;3.83;;;2.77;;
64894;SDS011;51588;53.702;10.208;2022-07-09T04:19:38;4.43;;;2.93;;
64894;SDS011;51588;53.702;10.208;2022-07-09T04:22:04;4.50;;;2.70;;
64894;SDS011;51588;53.702;10.208;2022-07-09T04:24:31;4.90;;;3.23;;
64894;SDS011;51588;53.702;10.208;2022-07-09T04:26:57;4.00;;;2.70;;
64894;SDS011;51588;53.702;10.208;2022-07-09T04:29:25;3.70;;;2.60;;
64894;SDS011;51588;53.702;10.208;2022-07-09T04:31:51;3.03;;;2.57;;
64894;SDS011;51588;53.702;10.208;2022-07-09T04:34:18;4.30;;;2.90;;
64894;SDS011;51588;53.702;10.208;2022-07-09T04:36:44;3.07;;;2.70;;
64894;SDS011;51588;53.702;10.208;2022-07-09T04:39:11;2.70;;;2.50;;
64894;SDS011;51588;53.702;10.208;2022-07-09T04:41:38;4.23;;;3.00;;
64894;SDS011;51588;53.702;10.208;2022-07-09T04:44:04;3.57;;;2.70;;
64894;SDS011;51588;53.702;10.208;2022-07-09T04:46:32;3.27;;;2.33;;
64894;SDS011;51588;53.702;10.208;2022-07-09T04:48:58;4.10;;;2.70;;
64894;SDS011;51588;53.702;10.208;2022-07-09T04:51:25;3.70;;;2.70;;
64894;SDS011;51588;53.702;10.208;2022-07-09T04:53:51;3.97;;;2.53;;
64894;SDS011;51588;53.702;10.208;2022-07-09T04:56:17;3.00;;;2.70;;
64894;SDS011;51588;53.702;10.208;2022-07-09T04:58:44;3.80;;;2.77;;
64894;SDS011;51588;53.702;10.208;2022-07-09T05:01:17;3.70;;;2.80;;
64894;SDS011;51588;53.702;10.208;2022-07-09T05:03:45;3.70;;;2.90;;
64894;SDS011;51588;53.702;10.208;2022-07-09T05:06:12;2.80;;;2.50;;
64894;SDS011;51588;53.702;10.208;2022-07-09T05:08:38;4.40;;;2.90;;
64894;SDS011;51588;53.702;10.208;2022-07-09T05:11:05;4.30;;;2.93;;
64894;SDS011;51588;53.702;10.208;2022-07-09T05:13:31;3.87;;;2.63;;
64894;SDS011;51588;53.702;10.208;2022-07-09T05:15:58;2.73;;;2.43;;
64894;SDS011;51588;53.702;10.208;2022-07-09T05:18:24;3.83;;;2.43;;
64894;SDS011;51588;53.702;10.208;2022-07-09T05:20:52;6.60;;;2.67;;
64894;SDS011;51588;53.702;10.208;2022-07-09T05:23:19;3.30;;;2.70;;
64894;SDS011;51588;53.702;10.208;2022-07-09T05:25:45;3.17;;;2.40;;
64894;SDS011;51588;53.702;10.208;2022-07-09T05:28:11;3.30;;;2.50;;
64894;SDS011;51588;53.702;10.208;2022-07-09T05:30:38;3.83;;;2.90;;
64894;SDS011;51588;53.702;10.208;2022-07-09T05:33:04;4.10;;;2.80;;
64894;SDS011;51588;53.702;10.208;2022-07-09T05:35:31;4.10;;;2.70;;
64894;SDS011;51588;53.702;10.208;2022-07-09T05:37:58;3.33;;;2.97;;
64894;SDS011;51588;53.702;10.208;2022-07-09T05:40:25;4.20;;;2.40;;
64894;SDS011;51588;53.702;10.208;2022-07-09T05:42:51;3.80;;;2.97;;
64894;SDS011;51588;53.702;10.208;2022-07-09T05:45:18;4.90;;;3.10;;
64894;SDS011;51588;53.702;10.208;2022-07-09T05:47:44;2.60;;;2.33;;
64894;SDS011;51588;53.702;10.208;2022-07-09T05:50:11;6.23;;;2.87;;
64894;SDS011;51588;53.702;10.208;2022-07-09T05:52:37;4.50;;;2.97;;
64894;SDS011;51588;53.702;10.208;2022-07-09T05:55:06;3.30;;;2.53;;
64894;SDS011;51588;53.702;10.208;2022-07-09T05:57:32;4.97;;;3.10;;
64894;SDS011;51588;53.702;10.208;2022-07-09T05:59:58;5.47;;;2.80;;
64894;SDS011;51588;53.702;10.208;2022-07-09T06:02:25;5.30;;;2.83;;
64894;SDS011;51588;53.702;10.208;2022-07-09T06:04:51;8.17;;;4.10;;
64894;SDS011;51588;53.702;10.208;2022-07-09T06:07:17;3.13;;;2.63;;
64894;SDS011;51588;53.702;10.208;2022-07-09T06:09:44;7.97;;;3.40;;
64894;SDS011;51588;53.702;10.208;2022-07-09T06:12:11;4.40;;;2.73;;
64894;SDS011;51588;53.702;10.208;2022-07-09T06:14:38;5.43;;;3.03;;
64894;SDS011;51588;53.702;10.208;2022-07-09T06:17:04;3.50;;;2.70;;
64894;SDS011;51588;53.702;10.208;2022-07-09T06:19:32;3.73;;;2.90;;
64894;SDS011;51588;53.702;10.208;2022-07-09T06:21:58;6.37;;;2.90;;
64894;SDS011;51588;53.702;10.208;2022-07-09T06:24:25;2.87;;;2.50;;
64894;SDS011;51588;53.702;10.208;2022-07-09T06:26:51;3.53;;;2.57;;
64894;SDS011;51588;53.702;10.208;2022-07-09T06:29:19;5.37;;;3.10;;
64894;SDS011;51588;53.702;10.208;2022-07-09T06:31:46;2.50;;;2.30;;
64894;SDS011;51588;53.702;10.208;2022-07-09T06:34:12;5.10;;;2.67;;
64894;SDS011;51588;53.702;10.208;2022-07-09T06:36:38;5.63;;;2.33;;
64894;SDS011;51588;53.702;10.208;2022-07-09T06:39:05;3.80;;;2.53;;
64894;SDS011;51588;53.702;10.208;2022-07-09T06:41:49;2.90;;;2.53;;
64894;SDS011;51588;53.702;10.208;2022-07-09T06:44:15;4.17;;;2.70;;
64894;SDS011;51588;53.702;10.208;2022-07-09T06:46:43;3.20;;;2.63;;
64894;SDS011;51588;53.702;10.208;2022-07-09T06:49:09;3.40;;;2.63;;
64894;SDS011;51588;53.702;10.208;2022-07-09T06:51:35;4.80;;;2.57;;
64894;SDS011;51588;53.702;10.208;2022-07-09T06:54:02;2.90;;;2.40;;
64894;SDS011;51588;53.702;10.208;2022-07-09T06:56:28;5.07;;;2.93;;
64894;SDS011;51588;53.702;10.208;2022-07-09T06:58:54;5.20;;;2.40;;
64894;SDS011;51588;53.702;10.208;2022-07-09T07:01:21;5.40;;;3.20;;
64894;SDS011;51588;53.702;10.208;2022-07-09T07:03:48;4.63;;;2.57;;
64894;SDS011;51588;53.702;10.208;2022-07-09T07:06:15;4.30;;;2.57;;
64894;SDS011;51588;53.702;10.208;2022-07-09T07:08:41;5.53;;;2.90;;
64894;SDS011;51588;53.702;10.208;2022-07-09T07:11:07;6.63;;;2.97;;
64894;SDS011;51588;53.702;10.208;2022-07-09T07:13:34;43.40;;;8.70;;
64894;SDS011;51588;53.702;10.208;2022-07-09T07:16:00;42.47;;;7.80;;
64894;SDS011;51588;53.702;10.208;2022-07-09T07:18:27;30.50;;;7.70;;
64894;SDS011;51588;53.702;10.208;2022-07-09T07:20:54;25.30;;;7.30;;
64894;SDS011;51588;53.702;10.208;2022-07-09T07:23:21;26.60;;;7.40;;
64894;SDS011;51588;53.702;10.208;2022-07-09T07:25:47;26.10;;;5.97;;
64894;SDS011;51588;53.702;10.208;2022-07-09T07:28:13;30.07;;;6.90;;
64894;SDS011;51588;53.702;10.208;2022-07-09T07:30:40;14.87;;;5.50;;
64894;SDS011;51588;53.702;10.208;2022-07-09T07:33:07;25.93;;;6.03;;
64894;SDS011;51588;53.702;10.208;2022-07-09T07:35:33;14.43;;;5.57;;
64894;SDS011;51588;53.702;10.208;2022-07-09T07:38:01;18.37;;;4.77;;
64894;SDS011;51588;53.702;10.208;2022-07-09T07:40:27;13.03;;;4.60;;
64894;SDS011;51588;53.702;10.208;2022-07-09T07:42:53;17.10;;;4.57;;
64894;SDS011;51588;53.702;10.208;2022-07-09T07:45:20;19.23;;;4.47;;
64894;SDS011;51588;53.702;10.208;2022-07-09T07:47:46;14.63;;;4.33;;
64894;SDS011;51588;53.702;10.208;2022-07-09T07:50:13;12.70;;;4.07;;
64894;SDS011;51588;53.702;10.208;2022-07-09T07:52:39;6.20;;;3.57;;
64894;SDS011;51588;53.702;10.208;2022-07-09T07:55:07;9.47;;;3.80;;
64894;SDS011;51588;53.702;10.208;2022-07-09T07:57:34;11.93;;;4.20;;
64894;SDS011;51588;53.702;10.208;2022-07-09T08:00:00;8.10;;;3.83;;
64894;SDS011;51588;53.702;10.208;2022-07-09T08:02:27;8.20;;;3.73;;
64894;SDS011;51588;53.702;10.208;2022-07-09T08:04:53;11.20;;;3.93;;
64894;SDS011;51588;53.702;10.208;2022-07-09T08:07:20;8.07;;;3.50;;
64894;SDS011;51588;53.702;10.208;2022-07-09T08:09:46;7.40;;;3.37;;
64894;SDS011;51588;53.702;10.208;2022-07-09T08:12:14;7.10;;;3.40;;
64894;SDS011;51588;53.702;10.208;2022-07-09T08:14:40;9.40;;;3.40;;
64894;SDS011;51588;53.702;10.208;2022-07-09T08:17:06;9.00;;;3.73;;
64894;SDS011;51588;53.702;10.208;2022-07-09T08:19:33;12.70;;;3.50;;
64894;SDS011;51588;53.702;10.208;2022-07-09T08:21:59;7.43;;;3.10;;
64894;SDS011;51588;53.702;10.208;2022-07-09T08:24:25;6.27;;;3.10;;
64894;SDS011;51588;53.702;10.208;2022-07-09T08:26:52;7.77;;;3.20;;
64894;SDS011;51588;53.702;10.208;2022-07-09T08:29:20;7.33;;;3.53;;
64894;SDS011;51588;53.702;10.208;2022-07-09T08:31:46;10.30;;;3.90;;
64894;SDS011;51588;53.702;10.208;2022-07-09T08:34:14;7.10;;;3.37;;
64894;SDS011;51588;53.702;10.208;2022-07-09T08:36:41;8.27;;;2.87;;
64894;SDS011;51588;53.702;10.208;2022-07-09T08:39:07;11.80;;;3.30;;
64894;SDS011;51588;53.702;10.208;2022-07-09T08:41:33;6.37;;;3.23;;
64894;SDS011;51588;53.702;10.208;2022-07-09T08:44:00;5.30;;;2.90;;
64894;SDS011;51588;53.702;10.208;2022-07-09T08:46:30;6.27;;;3.30;;
64894;SDS011;51588;53.702;10.208;2022-07-09T08:48:57;6.13;;;3.13;;
64894;SDS011;51588;53.702;10.208;2022-07-09T08:51:24;9.90;;;3.20;;
64894;SDS011;51588;53.702;10.208;2022-07-09T08:53:53;6.73;;;3.03;;
64894;SDS011;51588;53.702;10.208;2022-07-09T08:56:19;6.57;;;3.00;;
64894;SDS011;51588;53.702;10.208;2022-07-09T08:58:45;6.50;;;3.33;;
64894;SDS011;51588;53.702;10.208;2022-07-09T09:01:12;9.07;;;2.77;;
64894;SDS011;51588;53.702;10.208;2022-07-09T09:03:40;7.13;;;3.10;;
64894;SDS011;51588;53.702;10.208;2022-07-09T09:06:08;6.63;;;2.63;;
64894;SDS011;51588;53.702;10.208;2022-07-09T09:08:34;3.47;;;2.70;;
64894;SDS011;51588;53.702;10.208;2022-07-09T09:11:01;4.70;;;2.60;;
64894;SDS011;51588;53.702;10.208;2022-07-09T09:13:28;3.87;;;2.70;;
64894;SDS011;51588;53.702;10.208;2022-07-09T09:16:04;5.40;;;2.40;;
64894;SDS011;51588;53.702;10.208;2022-07-09T09:18:31;6.93;;;2.80;;
64894;SDS011;51588;53.702;10.208;2022-07-09T09:21:02;5.23;;;2.60;;
64894;SDS011;51588;53.702;10.208;2022-07-09T09:23:29;7.23;;;2.67;;
64894;SDS011;51588;53.702;10.208;2022-07-09T09:25:55;3.53;;;2.60;;
64894;SDS011;51588;53.702;10.208;2022-07-09T09:28:33;6.50;;;2.97;;
64894;SDS011;51588;53.702;10.208;2022-07-09T09:30:59;4.63;;;2.30;;
64894;SDS011;51588;53.702;10.208;2022-07-09T09:33:26;5.53;;;2.57;;
64894;SDS011;51588;53.702;10.208;2022-07-09T09:35:52;4.60;;;2.20;;
64894;SDS011;51588;53.702;10.208;2022-07-09T09:38:23;5.00;;;2.33;;
64894;SDS011;51588;53.702;10.208;2022-07-09T09:40:54;4.20;;;2.13;;
64894;SDS011;51588;53.702;10.208;2022-07-09T09:43:21;4.20;;;2.30;;
64894;SDS011;51588;53.702;10.208;2022-07-09T09:45:49;3.37;;;2.07;;
64894;SDS011;51588;53.702;10.208;2022-07-09T09:48:18;4.60;;;2.20;;
64894;SDS011;51588;53.702;10.208;2022-07-09T09:50:45;2.50;;;2.23;;
64894;SDS011;51588;53.702;10.208;2022-07-09T09:53:13;4.07;;;2.33;;
64894;SDS011;51588;53.702;10.208;2022-07-09T09:55:41;9.60;;;2.60;;
64894;SDS011;51588;53.702;10.208;2022-07-09T09:58:08;5.70;;;2.60;;
64894;SDS011;51588;53.702;10.208;2022-07-09T10:00:35;8.40;;;2.20;;
64894;SDS011;51588;53.702;10.208;2022-07-09T10:03:02;7.23;;;2.27;;
64894;SDS011;51588;53.702;10.208;2022-07-09T10:05:28;5.53;;;2.30;;
64894;SDS011;51588;53.702;10.208;2022-07-09T10:07:54;3.27;;;2.43;;
64894;SDS011;51588;53.702;10.208;2022-07-09T10:10:21;4.80;;;2.57;;
64894;SDS011;51588;53.702;10.208;2022-07-09T10:12:49;3.90;;;2.30;;
64894;SDS011;51588;53.702;10.208;2022-07-09T10:15:22;8.57;;;2.40;;
64894;SDS011;51588;53.702;10.208;2022-07-09T10:17:50;3.13;;;1.73;;
64894;SDS011;51588;53.702;10.208;2022-07-09T10:20:16;5.97;;;1.93;;
64894;SDS011;51588;53.702;10.208;2022-07-09T10:22:43;7.97;;;2.57;;
64894;SDS011;51588;53.702;10.208;2022-07-09T10:25:10;4.37;;;2.17;;
64894;SDS011;51588;53.702;10.208;2022-07-09T10:27:43;4.30;;;2.30;;
64894;SDS011;51588;53.702;10.208;2022-07-09T10:30:22;3.03;;;2.27;;
64894;SDS011;51588;53.702;10.208;2022-07-09T10:33:00;2.97;;;2.20;;
64894;SDS011;51588;53.702;10.208;2022-07-09T10:35:27;4.50;;;2.03;;
64894;SDS011;51588;53.702;10.208;2022-07-09T10:37:53;6.47;;;2.50;;
64894;SDS011;51588;53.702;10.208;2022-07-09T10:40:20;8.07;;;2.77;;
64894;SDS011;51588;53.702;10.208;2022-07-09T10:42:56;3.70;;;2.30;;
64894;SDS011;51588;53.702;10.208;2022-07-09T10:45:24;6.37;;;2.33;;
64894;SDS011;51588;53.702;10.208;2022-07-09T10:47:52;6.13;;;2.33;;
64894;SDS011;51588;53.702;10.208;2022-07-09T10:50:19;3.60;;;2.30;;
64894;SDS011;51588;53.702;10.208;2022-07-09T10:52:45;5.00;;;1.90;;
64894;SDS011;51588;53.702;10.208;2022-07-09T10:55:12;5.67;;;2.17;;
64894;SDS011;51588;53.702;10.208;2022-07-09T10:57:38;7.17;;;2.00;;
64894;SDS011;51588;53.702;10.208;2022-07-09T11:00:05;7.73;;;2.23;;
64894;SDS011;51588;53.702;10.208;2022-07-09T11:02:34;3.83;;;2.10;;
64894;SDS011;51588;53.702;10.208;2022-07-09T11:05:01;6.33;;;2.10;;
64894;SDS011;51588;53.702;10.208;2022-07-09T11:07:27;3.50;;;2.00;;
64894;SDS011;51588;53.702;10.208;2022-07-09T11:09:54;5.50;;;2.10;;
64894;SDS011;51588;53.702;10.208;2022-07-09T11:12:21;6.60;;;1.90;;
64894;SDS011;51588;53.702;10.208;2022-07-09T11:14:48;3.10;;;1.80;;
64894;SDS011;51588;53.702;10.208;2022-07-09T11:17:15;5.10;;;1.80;;
64894;SDS011;51588;53.702;10.208;2022-07-09T11:19:43;4.80;;;2.10;;
64894;SDS011;51588;53.702;10.208;2022-07-09T11:22:09;3.20;;;1.97;;
64894;SDS011;51588;53.702;10.208;2022-07-09T11:24:36;6.40;;;2.17;;
64894;SDS011;51588;53.702;10.208;2022-07-09T11:27:03;4.17;;;2.47;;
64894;SDS011;51588;53.702;10.208;2022-07-09T11:29:29;3.70;;;1.73;;
64894;SDS011;51588;53.702;10.208;2022-07-09T11:31:56;4.10;;;1.83;;
64894;SDS011;51588;53.702;10.208;2022-07-09T11:34:23;3.50;;;2.00;;
64894;SDS011;51588;53.702;10.208;2022-07-09T11:36:52;4.77;;;1.90;;
64894;SDS011;51588;53.702;10.208;2022-07-09T11:39:22;3.87;;;1.93;;
64894;SDS011;51588;53.702;10.208;2022-07-09T11:41:49;2.77;;;2.17;;
64894;SDS011;51588;53.702;10.208;2022-07-09T11:44:19;6.13;;;2.57;;
64894;SDS011;51588;53.702;10.208;2022-07-09T11:46:45;3.37;;;2.10;;
64894;SDS011;51588;53.702;10.208;2022-07-09T11:49:15;4.50;;;2.27;;
64894;SDS011;51588;53.702;10.208;2022-07-09T11:51:42;9.73;;;2.40;;
64894;SDS011;51588;53.702;10.208;2022-07-09T11:54:10;8.70;;;2.07;;
64894;SDS011;51588;53.702;10.208;2022-07-09T11:56:40;7.40;;;2.17;;
64894;SDS011;51588;53.702;10.208;2022-07-09T11:59:08;9.60;;;2.43;;
64894;SDS011;51588;53.702;10.208;2022-07-09T12:01:35;14.20;;;2.73;;
64894;SDS011;51588;53.702;10.208;2022-07-09T12:04:02;6.33;;;2.20;;
64894;SDS011;51588;53.702;10.208;2022-07-09T12:06:28;5.93;;;2.27;;
64894;SDS011;51588;53.702;10.208;2022-07-09T12:08:58;5.00;;;2.27;;
64894;SDS011;51588;53.702;10.208;2022-07-09T12:11:27;8.30;;;2.73;;
64894;SDS011;51588;53.702;10.208;2022-07-09T12:13:53;5.30;;;2.70;;
64894;SDS011;51588;53.702;10.208;2022-07-09T12:16:20;6.23;;;2.30;;
64894;SDS011;51588;53.702;10.208;2022-07-09T12:18:46;9.77;;;2.77;;
64894;SDS011;51588;53.702;10.208;2022-07-09T12:21:12;3.10;;;2.10;;
64894;SDS011;51588;53.702;10.208;2022-07-09T12:23:39;3.90;;;2.40;;
64894;SDS011;51588;53.702;10.208;2022-07-09T12:26:05;4.73;;;2.30;;
64894;SDS011;51588;53.702;10.208;2022-07-09T12:28:33;4.20;;;2.07;;
64894;SDS011;51588;53.702;10.208;2022-07-09T12:31:00;5.00;;;1.93;;
64894;SDS011;51588;53.702;10.208;2022-07-09T12:33:27;4.07;;;2.20;;
64894;SDS011;51588;53.702;10.208;2022-07-09T12:35:53;9.70;;;2.20;;
64894;SDS011;51588;53.702;10.208;2022-07-09T12:38:20;3.83;;;2.03;;
64894;SDS011;51588;53.702;10.208;2022-07-09T12:40:46;5.17;;;1.93;;
64894;SDS011;51588;53.702;10.208;2022-07-09T12:43:12;2.67;;;1.70;;
64894;SDS011;51588;53.702;10.208;2022-07-09T12:45:40;3.07;;;1.83;;
64894;SDS011;51588;53.702;10.208;2022-07-09T12:48:07;6.10;;;1.87;;
64894;SDS011;51588;53.702;10.208;2022-07-09T12:50:33;3.00;;;1.73;;
64894;SDS011;51588;53.702;10.208;2022-07-09T12:52:59;4.60;;;2.00;;
64894;SDS011;51588;53.702;10.208;2022-07-09T12:55:26;4.43;;;1.70;;
64894;SDS011;51588;53.702;10.208;2022-07-09T12:57:52;2.20;;;1.73;;
64894;SDS011;51588;53.702;10.208;2022-07-09T13:00:18;3.20;;;1.97;;
64894;SDS011;51588;53.702;10.208;2022-07-09T13:02:47;2.03;;;1.83;;
64894;SDS011;51588;53.702;10.208;2022-07-09T13:05:13;2.57;;;1.50;;
64894;SDS011;51588;53.702;10.208;2022-07-09T13:07:42;3.60;;;2.00;;
64894;SDS011;51588;53.702;10.208;2022-07-09T13:10:08;3.73;;;1.90;;
64894;SDS011;51588;53.702;10.208;2022-07-09T13:12:34;2.80;;;1.80;;
64894;SDS011;51588;53.702;10.208;2022-07-09T13:15:01;8.37;;;1.57;;
64894;SDS011;51588;53.702;10.208;2022-07-09T13:17:27;2.00;;;1.50;;
64894;SDS011;51588;53.702;10.208;2022-07-09T13:19:55;2.50;;;1.80;;
64894;SDS011;51588;53.702;10.208;2022-07-09T13:22:21;5.57;;;2.37;;
64894;SDS011;51588;53.702;10.208;2022-07-09T13:24:48;5.97;;;1.97;;
64894;SDS011;51588;53.702;10.208;2022-07-09T13:27:14;4.43;;;1.77;;
64894;SDS011;51588;53.702;10.208;2022-07-09T13:29:43;5.73;;;1.97;;
64894;SDS011;51588;53.702;10.208;2022-07-09T13:32:10;4.80;;;1.70;;
64894;SDS011;51588;53.702;10.208;2022-07-09T13:34:36;5.67;;;1.60;;
64894;SDS011;51588;53.702;10.208;2022-07-09T13:37:04;3.73;;;1.70;;
64894;SDS011;51588;53.702;10.208;2022-07-09T13:39:30;3.33;;;1.57;;
64894;SDS011;51588;53.702;10.208;2022-07-09T13:41:57;5.23;;;1.70;;
64894;SDS011;51588;53.702;10.208;2022-07-09T13:44:23;5.10;;;1.70;;
64894;SDS011;51588;53.702;10.208;2022-07-09T13:46:49;6.13;;;1.67;;
64894;SDS011;51588;53.702;10.208;2022-07-09T13:49:16;3.47;;;1.63;;
64894;SDS011;51588;53.702;10.208;2022-07-09T13:51:42;2.90;;;1.33;;
64894;SDS011;51588;53.702;10.208;2022-07-09T13:54:10;4.20;;;1.67;;
64894;SDS011;51588;53.702;10.208;2022-07-09T13:56:36;3.23;;;1.50;;
64894;SDS011;51588;53.702;10.208;2022-07-09T13:59:03;2.90;;;1.50;;
64894;SDS011;51588;53.702;10.208;2022-07-09T14:01:29;3.57;;;1.30;;
64894;SDS011;51588;53.702;10.208;2022-07-09T14:03:56;6.70;;;1.77;;
64894;SDS011;51588;53.702;10.208;2022-07-09T14:06:23;1.77;;;1.30;;
64894;SDS011;51588;53.702;10.208;2022-07-09T14:08:49;6.50;;;1.83;;
64894;SDS011;51588;53.702;10.208;2022-07-09T14:11:17;6.77;;;1.80;;
64894;SDS011;51588;53.702;10.208;2022-07-09T14:13:44;1.87;;;1.27;;
64894;SDS011;51588;53.702;10.208;2022-07-09T14:16:11;2.40;;;1.37;;
64894;SDS011;51588;53.702;10.208;2022-07-09T14:18:38;3.83;;;1.40;;
64894;SDS011;51588;53.702;10.208;2022-07-09T14:21:04;7.03;;;1.63;;
64894;SDS011;51588;53.702;10.208;2022-07-09T14:23:30;3.87;;;1.70;;
64894;SDS011;51588;53.702;10.208;2022-07-09T14:25:57;5.03;;;1.43;;
64894;SDS011;51588;53.702;10.208;2022-07-09T14:28:25;2.87;;;1.43;;
64894;SDS011;51588;53.702;10.208;2022-07-09T14:30:51;4.23;;;1.60;;